RJBB/KIX METAR and TAF weather

Enter ICAO airport designator
Station Type Date Time Source
RJBB METAR 2022/10/01 07:30 UTC NOAA

RJBB 010730Z 24004KT 9999 FEW025 27/20 Q1015 NOSIG


Station Type Date Time Source
RJBB Decoded METAR 2022/10/01 07:30 UTC NOAA

Kansai International Airport, Japan (RJBB) 34-25N 135-15E 8M
Oct 01, 2022 - 03:30 AM EDT / 2022.10.01 0730 UTC
Wind: from the WSW (240 degrees) at 5 MPH (4 KT):0
Visibility: greater than 7 mile(s):0
Sky conditions: mostly clear
Temperature: 80 F (27 C)
Dew Point: 68 F (20 C)
Relative Humidity: 65%
Pressure (altimeter): 29.97 in. Hg (1015 hPa)
ob: RJBB 010730Z 24004KT 9999 FEW025 27/20 Q1015 NOSIG
cycle: 7

Station Type Date Time Source
RJBB TAF 2022/10/01 06:30 UTC NOAA

TAF TAF RJBB 010505Z 0106/0212 24006KT 9999 FEW025 SCT050
BECMG 0109/0111 04009KT
BECMG 0203/0206 21010KT

Example: see airport list